KMBO

Bruce Campbell Field Airport

Madison, Mississippi, USA
METAR KMBO 171635Z AUTO 26005KT 10SM BKN033 30/23 A3010 RMK AO2 LTG DSNT SE PWINO
Observed Flight Rules
Aug-17 @ 16:35 UTC (16 minutes ago) Visual Flight Rules
Wind Visibility Clouds
260° at 5 knots 10 miles
  • Broken at 3,300' AGL
Temperatures Readings
Current 30°C / 86°F
Dewpoint 23°C / 73°F
Humidity 66%
Altimeter 30.1" Hg
Pressure 1019 hPa
Elevation 99
METAR KMBO 171635Z AUTO 26005KT 10SM BKN033 30/23 A3010 RMK AO2 LTG DSNT SE PWINO
Observed Flight Rules
Aug-17 @ 16:35 UTC
(16 minutes ago)
VFR
Wind Visibility
260° at 5 knots 10 miles
Clouds
  • Broken at 3,300' AGL
Temperature Dewpoint
30°C / 86°F 23°C / 73°F
Humidity Altimeter Pressure
66% 30.1" Hg 1019 hPa